METAR Data
IDs: Format: Raw Decoded Include TAF

Data at: 0238 UTC 23 Apr 2021

YPKU 230230Z AUTO 12012KT 9999 // NCD 33/15 Q1013 RF00.0/000.0
YPKU 230200Z AUTO 10013KT 9999 // NCD 32/13 Q1013
YPKU 230130Z AUTO 12013KT 9999 // NCD 32/12 Q1013 RF00.0/000.0
YPKU 230100Z AUTO 12014KT 9999 // NCD 31/11 Q1013
YPKU 230030Z AUTO 11013KT 9999 // NCD 30/10 Q1013 RF00.0/000.0
YPKU 230000Z AUTO 13009KT 9999 // NCD 30/10 Q1013
YPKU 222330Z AUTO 15005KT 9999 // NCD 28/11 Q1013 RF00.0/000.0
YPKU 222300Z AUTO 17005KT 9999 // NCD 25/13 Q1013
YPKU 222230Z AUTO 16006KT 9999 // NCD 25/13 Q1012 RF00.0/000.0
YPKU 222200Z AUTO 17005KT 9999 // NCD 21/16 Q1012
YPKU 222130Z AUTO 17003KT 9999 // NCD 21/14 Q1012 RF00.0/000.0
YPKU 222100Z AUTO 16004KT 9999 // BKN110 21/15 Q1011
YPKU 222030Z AUTO 17005KT 9999 // SCT110 23/15 Q1011 RF00.0/000.0
YPKU 222000Z AUTO 20004KT 9999 // SCT110 20/15 Q1011
YPKU 221930Z AUTO 15002KT 9999 // BKN110 20/15 Q1011 RF00.0/000.0
YPKU 221900Z AUTO 16005KT 9999 // SCT100 24/13 Q1011
YPKU 221830Z AUTO 17004KT 9999 // NCD 23/15 Q1010 RF00.0/000.0
YPKU 221800Z AUTO 20004KT 9999 // NCD 23/14 Q1010
YPKU 221730Z AUTO 18005KT 9999 // SCT110 25/14 Q1010 RF00.0/000.0
YPKU 221700Z AUTO 19005KT 9999 // SCT110 25/14 Q1011
YPKU 221630Z AUTO 20005KT 9999 // SCT110 24/16 Q1011 RF00.0/000.0
YPKU 221600Z AUTO 22005KT 9999 // BKN110 25/17 Q1011
YPKU 221530Z AUTO 19004KT 9999 // SCT110 24/18 Q1011 RF00.0/000.0
YPKU 221500Z AUTO 17003KT 9999 // SCT110 22/18 Q1011
YPKU 221430Z AUTO 13003KT 9999 // SCT110 23/18 Q1011 RF00.0/000.0
YPKU 221400Z AUTO 17003KT 9999 // BKN110 22/19 Q1011
YPKU 221330Z AUTO 00000KT 9999 // NCD 22/18 Q1011 RF00.0/000.0
YPKU 221300Z AUTO 00000KT 9999 // NCD 22/18 Q1011
YPKU 221230Z AUTO 00000KT 9999 // NCD 23/18 Q1011 RF00.0/000.0
YPKU 221200Z AUTO 00000KT 9999 // NCD 24/18 Q1011
YPKU 221130Z AUTO 00000KT 8000 // NCD 24/18 Q1011 RF00.0/000.0
YPKU 221100Z AUTO 17003KT 9999 // SCT105 25/18 Q1011
YPKU 221030Z AUTO 18004KT 9999 // NCD 26/17 Q1010 RF00.0/000.0
YPKU 221000Z AUTO 12002KT 9999 // NCD 28/17 Q1010
YPKU 220930Z AUTO 14005KT 9999 // SCT100 32/15 Q1009 RF00.0/000.0
YPKU 220900Z AUTO 15005KT 9999 // SCT100 33/15 Q1009
YPKU 220830Z AUTO 17005KT 9999 // NCD 34/14 Q1009 RF00.0/000.0
YPKU 220800Z AUTO 13007KT 9999 // NCD 35/14 Q1008
YPKU 220730Z AUTO 14007KT 9999 // NCD 35/14 Q1008 RF00.0/000.0
YPKU 220700Z AUTO 13008KT 9999 // NCD 35/12 Q1008
YPKU 220630Z AUTO 14010KT 9999 // NCD 36/13 Q1008 RF00.0/000.0
YPKU 220600Z AUTO 14009KT 9999 // NCD 36/14 Q1009
YPKU 220530Z AUTO 11009KT 9999 // NCD 36/13 Q1009 RF00.0/000.0
YPKU 220500Z AUTO 15011KT 9999 // NCD 36/14 Q1009
YPKU 220430Z AUTO 15009KT 9999 // NCD 35/13 Q1010 RF00.0/000.0
YPKU 220400Z AUTO 17010KT 9999 // NCD 34/13 Q1010
YPKU 220330Z AUTO 15010KT 9999 // NCD 34/14 Q1010 RF00.0/000.0
YPKU 220300Z AUTO 16010KT 9999 // NCD 34/14 Q1011
YPKU 220230Z AUTO 16010KT 9999 // NCD 33/12 Q1011 RF00.0/000.0
YPKU 220200Z AUTO 17009KT 9999 // NCD 33/13 Q1012
YPKU 220130Z AUTO 15009KT 9999 // NCD 32/13 Q1012 RF00.0/000.0
YPKU 220100Z AUTO 17008KT 9999 // NCD 31/15 Q1012
YPKU 220030Z AUTO 16009KT 9999 // NCD 30/15 Q1012 RF00.0/000.0
YPKU 220000Z AUTO 18005KT 9999 // NCD 29/17 Q1012
YPKU 212330Z AUTO 20003KT 9999 // NCD 27/17 Q1013 RF00.0/000.0
YPKU 212300Z AUTO 00000KT 9999 // NCD 24/18 Q1012
YPKU 212230Z AUTO 00000KT 9999 // NCD 21/19 Q1012 RF00.0/000.0
YPKU 212200Z AUTO 00000KT 9999 // NCD 18/17 Q1012
YPKU 212130Z AUTO 00000KT 9999 // NCD 18/17 Q1011 RF00.0/000.0
YPKU 212100Z AUTO 00000KT 9999 // NCD 18/16 Q1011
YPKU 212030Z AUTO 18003KT 9999 // NCD 19/17 Q1011 RF00.0/000.0
YPKU 212000Z AUTO 00000KT 9999 // NCD 19/16 Q1010
YPKU 211930Z AUTO 00000KT 9999 // NCD 19/16 Q1010 RF00.0/000.0
YPKU 211900Z AUTO 19004KT 9999 // NCD 21/17 Q1010
YPKU 211830Z AUTO 15002KT 9999 // NCD 19/18 Q1010 RF00.0/000.0
YPKU 211800Z AUTO 13003KT 9999 // NCD 19/18 Q1010
YPKU 211730Z AUTO 07003KT 9999 // NCD 20/19 Q1010 RF00.0/000.0
YPKU 211700Z AUTO 00000KT 9999 // NCD 19/18 Q1010
YPKU 211630Z AUTO 00000KT 9999 // NCD 19/18 Q1010 RF00.0/000.0
YPKU 211600Z AUTO 00000KT 9999 // NCD 20/19 Q1011
YPKU 211530Z AUTO 00000KT 9999 // NCD 21/18 Q1011 RF00.0/000.0
YPKU 211500Z AUTO 00000KT 9999 // NCD 21/20 Q1011